Time;durP1;ratioP1;P1;durP2;ratioP2;P2;SDS_P1;SDS_P2;PMS_P1;PMS_P2;Temp;Humidity;BMP_temperature;BMP_pressure;BME280_temperature;BME280_humidity;BME280_pressure;Samples;Min_cycle;Max_cycle;Signal;HPM_P1;HPM_P2
2023/10/27 00:02:25;;;;;;;8.75;3.60;;;;;;;;;;5101169;28;20493;-66
2023/10/27 00:04:51;;;;;;;11.93;3.22;;;;;;;;;;5108807;28;20053;-66
2023/10/27 00:07:18;;;;;;;10.65;3.15;;;;;;;;;;5101274;28;20048;-66
2023/10/27 00:09:46;;;;;;;9.07;3.50;;;;;;;;;;5106192;28;20044;-66
2023/10/27 00:12:12;;;;;;;10.93;3.15;;;;;;;;;;5105641;28;20043;-66
2023/10/27 00:14:40;;;;;;;10.20;3.15;;;;;;;;;;5104693;28;20048;-66
2023/10/27 00:17:06;;;;;;;8.88;3.38;;;;;;;;;;5101060;28;20054;-66
2023/10/27 00:19:33;;;;;;;6.47;3.05;;;;;;;;;;5105740;28;20048;-66
2023/10/27 00:21:59;;;;;;;7.43;2.95;;;;;;;;;;5110349;28;20047;-67
2023/10/27 00:24:26;;;;;;;6.72;3.20;;;;;;;;;;5104668;28;20050;-66
2023/10/27 00:26:54;;;;;;;12.10;2.90;;;;;;;;;;5098595;28;20056;-66
2023/10/27 00:29:20;;;;;;;6.75;3.40;;;;;;;;;;5109425;28;20052;-66
2023/10/27 00:31:47;;;;;;;10.15;3.13;;;;;;;;;;5102180;28;20504;-67
2023/10/27 00:34:14;;;;;;;3.33;2.85;;;;;;;;;;5102192;28;20472;-66
2023/10/27 00:36:40;;;;;;;6.95;2.97;;;;;;;;;;5104281;28;20044;-66
2023/10/27 00:39:07;;;;;;;10.32;3.10;;;;;;;;;;5102334;28;20044;-67
2023/10/27 00:41:33;;;;;;;12.57;3.08;;;;;;;;;;5101681;28;20065;-66
2023/10/27 00:44:01;;;;;;;6.82;3.33;;;;;;;;;;5103305;28;20074;-66
2023/10/27 00:46:28;;;;;;;9.00;3.20;;;;;;;;;;5108482;28;20044;-67
2023/10/27 00:48:55;;;;;;;6.00;3.67;;;;;;;;;;5100107;28;20044;-66
2023/10/27 00:51:22;;;;;;;7.50;3.05;;;;;;;;;;5104317;28;20078;-66
2023/10/27 00:53:49;;;;;;;6.88;3.42;;;;;;;;;;5104118;28;20040;-66
2023/10/27 00:56:16;;;;;;;6.75;3.30;;;;;;;;;;5102274;28;20510;-66
2023/10/27 00:58:43;;;;;;;9.88;3.08;;;;;;;;;;5101264;28;20056;-66
2023/10/27 01:01:15;;;;;;;8.68;3.20;;;;;;;;;;5111364;28;20051;-66
2023/10/27 01:03:42;;;;;;;6.43;3.20;;;;;;;;;;5093408;28;20044;-66
2023/10/27 01:06:09;;;;;;;9.40;3.28;;;;;;;;;;5088321;28;20101;-66
2023/10/27 01:08:35;;;;;;;10.02;3.55;;;;;;;;;;5105158;28;20039;-66
2023/10/27 01:11:03;;;;;;;7.43;3.05;;;;;;;;;;5094563;28;20139;-66
2023/10/27 01:13:30;;;;;;;7.43;3.20;;;;;;;;;;5107675;28;20511;-66
2023/10/27 01:15:57;;;;;;;8.57;3.05;;;;;;;;;;5105542;28;20290;-66
2023/10/27 01:18:24;;;;;;;7.75;2.78;;;;;;;;;;5104150;28;20131;-66
2023/10/27 01:20:51;;;;;;;8.43;2.90;;;;;;;;;;5099893;28;20496;-66
2023/10/27 01:23:19;;;;;;;8.07;3.30;;;;;;;;;;5099024;28;20044;-66
2023/10/27 01:25:45;;;;;;;4.72;3.30;;;;;;;;;;5097577;28;20058;-66
2023/10/27 01:28:12;;;;;;;10.65;2.97;;;;;;;;;;5102994;28;20051;-66
2023/10/27 01:30:38;;;;;;;6.53;3.05;;;;;;;;;;5101395;28;20044;-66
2023/10/27 01:33:05;;;;;;;7.15;3.13;;;;;;;;;;5096701;28;20048;-67
2023/10/27 01:35:32;;;;;;;8.40;3.50;;;;;;;;;;5091850;28;20488;-65
2023/10/27 01:37:58;;;;;;;9.68;3.13;;;;;;;;;;5100617;28;20051;-65
2023/10/27 01:40:26;;;;;;;9.75;3.63;;;;;;;;;;5101949;28;20040;-68
2023/10/27 01:42:53;;;;;;;10.90;3.72;;;;;;;;;;5106704;28;20044;-65
2023/10/27 01:45:19;;;;;;;7.25;4.10;;;;;;;;;;5103524;28;20742;-65
2023/10/27 01:47:46;;;;;;;5.32;3.50;;;;;;;;;;5103819;28;20050;-68
2023/10/27 01:50:12;;;;;;;8.88;3.63;;;;;;;;;;5103489;28;20048;-67
2023/10/27 01:52:39;;;;;;;7.05;3.63;;;;;;;;;;5099423;28;20048;-68
2023/10/27 01:55:06;;;;;;;7.05;3.58;;;;;;;;;;5101457;28;20130;-68
2023/10/27 01:57:34;;;;;;;6.18;3.00;;;;;;;;;;5103403;28;20039;-68
2023/10/27 02:00:01;;;;;;;8.13;3.25;;;;;;;;;;5099918;28;20044;-68
2023/10/27 02:02:27;;;;;;;9.20;3.10;;;;;;;;;;5104261;28;20046;-65
2023/10/27 02:04:54;;;;;;;6.03;3.42;;;;;;;;;;5100188;28;20044;-68
2023/10/27 02:07:24;;;;;;;7.93;3.10;;;;;;;;;;5101903;28;20048;-67
2023/10/27 02:09:51;;;;;;;5.32;3.00;;;;;;;;;;5099887;28;20070;-67
2023/10/27 02:12:17;;;;;;;5.90;3.10;;;;;;;;;;5102624;28;20054;-68
2023/10/27 02:14:45;;;;;;;6.22;3.00;;;;;;;;;;5098955;28;20048;-67
2023/10/27 02:17:12;;;;;;;7.90;3.30;;;;;;;;;;5100608;28;20048;-67
2023/10/27 02:19:39;;;;;;;7.07;2.83;;;;;;;;;;5095297;28;20069;-67
2023/10/27 02:22:05;;;;;;;4.80;2.85;;;;;;;;;;5106185;28;20046;-67
2023/10/27 02:24:32;;;;;;;9.15;3.33;;;;;;;;;;5104401;28;20051;-67
2023/10/27 02:26:59;;;;;;;7.78;3.47;;;;;;;;;;5099276;28;20050;-67
2023/10/27 02:29:26;;;;;;;7.10;2.97;;;;;;;;;;5100308;28;20483;-67
2023/10/27 02:31:54;;;;;;;9.68;3.40;;;;;;;;;;5096170;28;20051;-67
2023/10/27 02:34:20;;;;;;;7.53;3.20;;;;;;;;;;5109309;28;20070;-67
2023/10/27 02:36:47;;;;;;;5.82;3.40;;;;;;;;;;5103208;28;20044;-67
2023/10/27 02:39:13;;;;;;;8.30;3.35;;;;;;;;;;5099439;28;20052;-67
2023/10/27 02:41:40;;;;;;;6.82;3.40;;;;;;;;;;5103501;28;20435;-67
2023/10/27 02:44:08;;;;;;;9.23;4.15;;;;;;;;;;5103068;28;20076;-67
2023/10/27 02:46:36;;;;;;;6.80;3.10;;;;;;;;;;5099751;28;20080;-67
2023/10/27 02:49:04;;;;;;;7.20;3.40;;;;;;;;;;5100896;28;20044;-67
2023/10/27 02:51:31;;;;;;;10.30;3.33;;;;;;;;;;5097623;28;20047;-67
2023/10/27 02:53:58;;;;;;;8.40;3.40;;;;;;;;;;5096149;28;20484;-67
2023/10/27 02:56:25;;;;;;;6.50;3.53;;;;;;;;;;5106088;28;20043;-67
2023/10/27 02:58:51;;;;;;;5.47;3.25;;;;;;;;;;5094851;28;20048;-67
2023/10/27 03:01:18;;;;;;;5.85;2.90;;;;;;;;;;5094453;28;20054;-67
2023/10/27 03:03:45;;;;;;;5.70;3.10;;;;;;;;;;5105959;28;20044;-67
2023/10/27 03:06:13;;;;;;;6.38;3.20;;;;;;;;;;5106057;28;20050;-67
2023/10/27 03:08:40;;;;;;;5.57;2.90;;;;;;;;;;5091590;28;20501;-67
2023/10/27 03:11:08;;;;;;;4.68;3.10;;;;;;;;;;5098926;28;20397;-67
2023/10/27 03:13:35;;;;;;;6.90;3.08;;;;;;;;;;5098168;28;20083;-67
2023/10/27 03:16:03;;;;;;;8.90;3.72;;;;;;;;;;5099756;28;20051;-67
2023/10/27 03:18:29;;;;;;;7.22;3.50;;;;;;;;;;5101169;28;20048;-68
2023/10/27 03:20:56;;;;;;;7.90;3.08;;;;;;;;;;5103041;28;20040;-67
2023/10/27 03:23:25;;;;;;;8.60;3.95;;;;;;;;;;5101984;28;20040;-67
2023/10/27 03:25:52;;;;;;;7.30;3.45;;;;;;;;;;5102613;28;20052;-67
2023/10/27 03:28:18;;;;;;;10.05;3.83;;;;;;;;;;5101990;28;20044;-67
2023/10/27 03:30:45;;;;;;;6.65;3.58;;;;;;;;;;5110343;28;20050;-68
2023/10/27 03:33:12;;;;;;;7.30;3.90;;;;;;;;;;5103678;28;20492;-67
2023/10/27 03:35:42;;;;;;;5.15;3.40;;;;;;;;;;5102430;28;20050;-67
2023/10/27 03:38:09;;;;;;;5.07;3.08;;;;;;;;;;5102571;28;20040;-67
2023/10/27 03:40:37;;;;;;;4.60;3.25;;;;;;;;;;5094821;28;20040;-67
2023/10/27 03:43:04;;;;;;;5.88;3.50;;;;;;;;;;5103378;28;20431;-67
2023/10/27 03:45:30;;;;;;;7.38;3.55;;;;;;;;;;5104177;28;20411;-67
2023/10/27 03:47:57;;;;;;;7.00;3.80;;;;;;;;;;5105731;28;20055;-68
2023/10/27 03:50:23;;;;;;;7.85;3.78;;;;;;;;;;5111182;28;20043;-67
2023/10/27 03:52:50;;;;;;;8.30;3.60;;;;;;;;;;5100424;28;20044;-67
2023/10/27 03:55:16;;;;;;;5.95;3.65;;;;;;;;;;5105665;28;20047;-68
2023/10/27 03:57:44;;;;;;;6.47;3.80;;;;;;;;;;5097584;28;20052;-67
2023/10/27 04:00:13;;;;;;;7.13;3.97;;;;;;;;;;5101157;28;20050;-67
2023/10/27 04:02:41;;;;;;;4.80;3.83;;;;;;;;;;5099157;28;20060;-67
2023/10/27 04:05:08;;;;;;;6.75;4.10;;;;;;;;;;5105165;28;20506;-67
2023/10/27 04:07:34;;;;;;;4.45;3.42;;;;;;;;;;5108733;28;20047;-67
2023/10/27 04:10:01;;;;;;;6.55;3.95;;;;;;;;;;5105175;28;20047;-67
2023/10/27 04:12:27;;;;;;;7.55;4.07;;;;;;;;;;5109173;28;20073;-67
2023/10/27 04:14:56;;;;;;;7.95;4.28;;;;;;;;;;5098407;28;20043;-69
2023/10/27 04:17:23;;;;;;;7.00;4.32;;;;;;;;;;5101488;28;20047;-65
2023/10/27 04:19:50;;;;;;;6.30;3.60;;;;;;;;;;5102297;28;20046;-67
2023/10/27 04:22:16;;;;;;;7.03;3.53;;;;;;;;;;5097053;28;20078;-67
2023/10/27 04:24:43;;;;;;;6.45;3.70;;;;;;;;;;5097255;28;20443;-67
2023/10/27 04:27:09;;;;;;;5.20;4.00;;;;;;;;;;5092118;28;20488;-67
2023/10/27 04:29:36;;;;;;;5.78;3.70;;;;;;;;;;5103633;28;20575;-67
2023/10/27 04:32:05;;;;;;;5.07;4.05;;;;;;;;;;5103627;28;20428;-67
2023/10/27 04:34:31;;;;;;;5.45;4.22;;;;;;;;;;5110029;28;20057;-67
2023/10/27 04:36:58;;;;;;;5.43;4.15;;;;;;;;;;5108043;28;20510;-66
2023/10/27 04:39:24;;;;;;;8.55;4.75;;;;;;;;;;5109761;28;20047;-67
2023/10/27 04:41:51;;;;;;;7.15;4.68;;;;;;;;;;5104453;28;20047;-67
2023/10/27 04:44:22;;;;;;;6.78;4.50;;;;;;;;;;5101451;28;20044;-67
2023/10/27 04:46:49;;;;;;;7.40;4.53;;;;;;;;;;5111609;28;20047;-67
2023/10/27 04:49:16;;;;;;;6.70;4.68;;;;;;;;;;5096439;28;20070;-67
2023/10/27 04:51:43;;;;;;;6.35;4.78;;;;;;;;;;5104303;28;20040;-67
2023/10/27 04:54:11;;;;;;;7.05;4.95;;;;;;;;;;5100117;28;20128;-67
2023/10/27 04:56:37;;;;;;;10.13;5.10;;;;;;;;;;5097589;28;20056;-67
2023/10/27 04:59:04;;;;;;;6.55;5.00;;;;;;;;;;5106643;28;20460;-67
2023/10/27 05:01:31;;;;;;;9.10;4.60;;;;;;;;;;5097933;28;20040;-67
2023/10/27 05:03:57;;;;;;;6.43;4.43;;;;;;;;;;5099659;28;20044;-67
2023/10/27 05:06:25;;;;;;;5.13;4.18;;;;;;;;;;5104826;28;20046;-67
2023/10/27 05:08:52;;;;;;;7.68;4.88;;;;;;;;;;5104412;28;20427;-67
2023/10/27 05:11:18;;;;;;;6.68;4.70;;;;;;;;;;5111811;28;20046;-67
2023/10/27 05:13:45;;;;;;;7.20;5.03;;;;;;;;;;5101430;28;20050;-67
2023/10/27 05:16:12;;;;;;;6.82;4.65;;;;;;;;;;5107809;28;20043;-67
2023/10/27 05:18:38;;;;;;;7.50;4.68;;;;;;;;;;5099578;28;20039;-67
2023/10/27 05:21:05;;;;;;;8.30;4.80;;;;;;;;;;5097283;28;20057;-67
2023/10/27 05:23:33;;;;;;;7.10;5.00;;;;;;;;;;5100473;28;20050;-67
2023/10/27 05:26:00;;;;;;;6.38;5.03;;;;;;;;;;5109389;28;20396;-67
2023/10/27 05:28:26;;;;;;;8.70;5.15;;;;;;;;;;5100397;28;20393;-67
2023/10/27 05:30:53;;;;;;;7.25;4.90;;;;;;;;;;5108691;28;20054;-67
2023/10/27 05:33:20;;;;;;;7.80;4.90;;;;;;;;;;5104862;28;20040;-67
2023/10/27 05:35:47;;;;;;;8.60;5.15;;;;;;;;;;5103819;28;20048;-67
2023/10/27 05:38:14;;;;;;;7.00;4.45;;;;;;;;;;5095747;28;20048;-67
2023/10/27 05:40:42;;;;;;;10.27;4.90;;;;;;;;;;5103109;28;20152;-67
2023/10/27 05:43:09;;;;;;;8.18;4.57;;;;;;;;;;5110255;28;20044;-67
2023/10/27 05:45:35;;;;;;;7.28;4.07;;;;;;;;;;5104748;28;20071;-68
2023/10/27 05:48:02;;;;;;;6.40;4.25;;;;;;;;;;5105421;28;20050;-67
2023/10/27 05:50:29;;;;;;;7.40;4.10;;;;;;;;;;5102230;28;20050;-67
2023/10/27 05:52:55;;;;;;;8.38;4.65;;;;;;;;;;5102018;28;20039;-67
2023/10/27 05:55:24;;;;;;;6.03;3.72;;;;;;;;;;5104103;28;20097;-67
2023/10/27 05:57:52;;;;;;;6.97;4.38;;;;;;;;;;5104758;28;20070;-67
2023/10/27 06:00:20;;;;;;;8.40;4.70;;;;;;;;;;5102610;28;20039;-67
2023/10/27 06:02:48;;;;;;;7.47;4.53;;;;;;;;;;5095427;28;20071;-67
2023/10/27 06:05:15;;;;;;;7.63;4.72;;;;;;;;;;5096618;28;20085;-67
2023/10/27 06:07:41;;;;;;;9.40;4.93;;;;;;;;;;5102302;28;20075;-67
2023/10/27 06:10:09;;;;;;;9.88;4.93;;;;;;;;;;5107145;28;20411;-67
2023/10/27 06:12:36;;;;;;;11.23;4.50;;;;;;;;;;5104488;28;20124;-68
2023/10/27 06:15:04;;;;;;;8.15;4.80;;;;;;;;;;5102404;28;20044;-67
2023/10/27 06:17:32;;;;;;;7.45;4.18;;;;;;;;;;5102316;28;20051;-67
2023/10/27 06:20:01;;;;;;;4.97;3.70;;;;;;;;;;5105283;28;20108;-67
2023/10/27 06:22:27;;;;;;;7.35;4.20;;;;;;;;;;5100172;28;20051;-67
2023/10/27 06:24:54;;;;;;;7.38;4.53;;;;;;;;;;5099637;28;20055;-67
2023/10/27 06:27:21;;;;;;;5.97;4.35;;;;;;;;;;5098469;28;20055;-67
2023/10/27 06:29:47;;;;;;;5.60;3.83;;;;;;;;;;5107258;28;20062;-67
2023/10/27 06:32:16;;;;;;;6.57;4.07;;;;;;;;;;5094386;28;20040;-67
2023/10/27 06:34:42;;;;;;;5.80;3.92;;;;;;;;;;5102623;28;20075;-67
2023/10/27 06:37:09;;;;;;;5.20;3.70;;;;;;;;;;5106002;28;20044;-67
2023/10/27 06:39:35;;;;;;;9.00;4.65;;;;;;;;;;5104855;28;20046;-67
2023/10/27 06:42:02;;;;;;;6.45;3.83;;;;;;;;;;5104503;28;20048;-67
2023/10/27 06:44:29;;;;;;;5.35;3.55;;;;;;;;;;5102007;28;20044;-67
2023/10/27 06:46:56;;;;;;;5.68;3.40;;;;;;;;;;5099141;28;20044;-67
2023/10/27 06:49:25;;;;;;;5.90;3.15;;;;;;;;;;5101820;28;20048;-67
2023/10/27 06:51:51;;;;;;;6.78;3.30;;;;;;;;;;5103179;28;20089;-67
2023/10/27 06:54:18;;;;;;;4.15;2.75;;;;;;;;;;5106588;28;20048;-67
2023/10/27 06:56:44;;;;;;;4.97;2.67;;;;;;;;;;5099613;28;20410;-68
2023/10/27 06:59:11;;;;;;;4.10;3.00;;;;;;;;;;5106857;28;20430;-67
2023/10/27 07:01:37;;;;;;;5.63;4.07;;;;;;;;;;5109936;28;20524;-67
2023/10/27 07:04:05;;;;;;;5.60;3.80;;;;;;;;;;5105620;28;20044;-67
2023/10/27 07:06:33;;;;;;;7.03;3.95;;;;;;;;;;5106467;28;20499;-67
2023/10/27 07:08:59;;;;;;;6.30;3.42;;;;;;;;;;5099718;28;20050;-67
2023/10/27 07:11:26;;;;;;;3.90;2.90;;;;;;;;;;5102410;28;20055;-67
2023/10/27 07:13:52;;;;;;;2.83;2.17;;;;;;;;;;5095333;28;20123;-67
2023/10/27 07:16:19;;;;;;;3.17;1.90;;;;;;;;;;5103639;28;20491;-67
2023/10/27 07:18:46;;;;;;;2.47;1.60;;;;;;;;;;5106829;28;20418;-69
2023/10/27 07:21:12;;;;;;;3.90;1.50;;;;;;;;;;5109006;28;20496;-67
2023/10/27 07:23:40;;;;;;;2.15;1.55;;;;;;;;;;5111812;28;20105;-67
2023/10/27 07:26:17;;;;;;;2.97;1.55;;;;;;;;;;5105701;28;20056;-67
2023/10/27 07:28:44;;;;;;;1.60;1.40;;;;;;;;;;5108051;28;20048;-67
2023/10/27 07:31:10;;;;;;;1.33;1.20;;;;;;;;;;5113159;28;20058;-67
2023/10/27 07:33:38;;;;;;;1.92;1.30;;;;;;;;;;5101868;28;20052;-67
2023/10/27 07:36:05;;;;;;;1.75;1.20;;;;;;;;;;5102696;28;20082;-67
2023/10/27 07:38:32;;;;;;;1.90;1.20;;;;;;;;;;5103462;28;20131;-67
2023/10/27 07:41:00;;;;;;;2.10;1.30;;;;;;;;;;5109155;28;20047;-67
2023/10/27 07:43:27;;;;;;;4.68;1.40;;;;;;;;;;5101618;27;20058;-67
2023/10/27 07:45:55;;;;;;;1.10;0.95;;;;;;;;;;5099183;28;20050;-67
2023/10/27 07:48:21;;;;;;;2.33;1.40;;;;;;;;;;5110752;28;20047;-68
2023/10/27 07:50:48;;;;;;;1.55;1.20;;;;;;;;;;5109820;28;20048;-67
2023/10/27 07:53:15;;;;;;;1.10;0.90;;;;;;;;;;5102063;28;20050;-67
2023/10/27 07:55:41;;;;;;;3.42;1.30;;;;;;;;;;5097952;28;20052;-67
2023/10/27 07:58:11;;;;;;;1.92;1.30;;;;;;;;;;5111119;28;20056;-67
2023/10/27 08:00:38;;;;;;;2.08;1.30;;;;;;;;;;5098307;28;20052;-67
2023/10/27 08:03:04;;;;;;;4.35;1.35;;;;;;;;;;5104478;28;20048;-67
2023/10/27 08:05:31;;;;;;;1.90;0.90;;;;;;;;;;5106968;28;20054;-68
2023/10/27 08:07:58;;;;;;;2.58;1.00;;;;;;;;;;5102693;28;20054;-67
2023/10/27 08:10:25;;;;;;;1.25;0.93;;;;;;;;;;5109122;28;20044;-67
2023/10/27 08:12:51;;;;;;;2.30;1.55;;;;;;;;;;5095561;28;20578;-67
2023/10/27 08:15:19;;;;;;;2.38;1.90;;;;;;;;;;5107277;28;20045;-67
2023/10/27 08:17:46;;;;;;;1.85;1.42;;;;;;;;;;5097634;28;20474;-67
2023/10/27 08:20:12;;;;;;;1.88;1.48;;;;;;;;;;5102483;28;20560;-66
2023/10/27 08:22:39;;;;;;;1.95;1.27;;;;;;;;;;5108745;28;20050;-67
2023/10/27 08:25:06;;;;;;;3.97;1.40;;;;;;;;;;5103587;28;20051;-67
2023/10/27 08:27:33;;;;;;;1.83;1.25;;;;;;;;;;5106864;28;20067;-67
2023/10/27 08:30:00;;;;;;;3.15;2.15;;;;;;;;;;5109160;28;20054;-67
2023/10/27 08:32:28;;;;;;;2.47;1.55;;;;;;;;;;5103919;28;20054;-67
2023/10/27 08:34:55;;;;;;;2.13;1.20;;;;;;;;;;5106348;27;20075;-67
2023/10/27 08:37:22;;;;;;;2.88;1.40;;;;;;;;;;5104933;28;20048;-67
2023/10/27 08:39:49;;;;;;;1.80;1.63;;;;;;;;;;5097215;28;20411;-67
2023/10/27 08:42:16;;;;;;;1.40;1.20;;;;;;;;;;5107655;28;20050;-67
2023/10/27 08:44:43;;;;;;;4.97;2.70;;;;;;;;;;5099687;28;20278;-67
2023/10/27 08:47:09;;;;;;;2.85;1.38;;;;;;;;;;5107199;28;20052;-67
2023/10/27 08:49:37;;;;;;;2.03;1.60;;;;;;;;;;5098124;28;20054;-68
2023/10/27 08:52:06;;;;;;;4.55;2.53;;;;;;;;;;5102615;28;20050;-67
2023/10/27 08:54:32;;;;;;;4.95;2.47;;;;;;;;;;5095066;28;20488;-67
2023/10/27 08:56:59;;;;;;;5.13;2.70;;;;;;;;;;5106565;28;20043;-67
2023/10/27 08:59:26;;;;;;;4.90;2.20;;;;;;;;;;5106671;28;20040;-67
2023/10/27 09:01:54;;;;;;;1.95;1.38;;;;;;;;;;5104658;28;20048;-67
2023/10/27 09:04:23;;;;;;;4.97;2.17;;;;;;;;;;5103871;28;20043;-67
2023/10/27 09:06:51;;;;;;;3.22;1.23;;;;;;;;;;5097409;28;20044;-67
2023/10/27 09:09:19;;;;;;;2.65;1.70;;;;;;;;;;5096996;28;20054;-67
2023/10/27 09:11:48;;;;;;;2.83;1.50;;;;;;;;;;5102577;28;20047;-67
2023/10/27 09:14:19;;;;;;;3.20;1.30;;;;;;;;;;5102835;28;20044;-67
2023/10/27 09:16:46;;;;;;;2.67;1.20;;;;;;;;;;5107271;28;20040;-67
2023/10/27 09:19:24;;;;;;;2.60;1.05;;;;;;;;;;5103411;28;20416;-67
2023/10/27 09:21:53;;;;;;;3.67;1.20;;;;;;;;;;5101805;28;20419;-67
2023/10/27 09:24:24;;;;;;;2.33;1.23;;;;;;;;;;5103846;28;20044;-67
2023/10/27 09:26:51;;;;;;;3.05;1.23;;;;;;;;;;5100811;28;20515;-67
2023/10/27 09:29:17;;;;;;;3.95;1.48;;;;;;;;;;5096205;28;20048;-68
2023/10/27 09:31:44;;;;;;;4.18;1.38;;;;;;;;;;5096739;28;20392;-67
2023/10/27 09:34:23;;;;;;;3.72;1.30;;;;;;;;;;5103878;28;20396;-67
2023/10/27 09:36:52;;;;;;;4.80;1.42;;;;;;;;;;5097316;28;20050;-67
2023/10/27 09:39:22;;;;;;;5.75;1.60;;;;;;;;;;5095064;28;20040;-68
2023/10/27 09:41:58;;;;;;;7.07;2.33;;;;;;;;;;5107553;28;20117;-67
2023/10/27 09:44:34;;;;;;;4.72;1.83;;;;;;;;;;5102064;28;20082;-67
2023/10/27 09:47:03;;;;;;;5.22;2.35;;;;;;;;;;5100869;28;20054;-67
2023/10/27 09:49:34;;;;;;;4.72;2.45;;;;;;;;;;5102384;28;20492;-67
2023/10/27 09:52:02;;;;;;;4.30;1.88;;;;;;;;;;5101916;28;20055;-67
2023/10/27 09:54:32;;;;;;;6.07;1.60;;;;;;;;;;5104439;28;20044;-67
2023/10/27 09:57:00;;;;;;;3.05;1.48;;;;;;;;;;5104516;28;20109;-67
2023/10/27 09:59:29;;;;;;;5.20;1.45;;;;;;;;;;5106818;28;20043;-67
2023/10/27 10:01:56;;;;;;;6.88;1.60;;;;;;;;;;5098211;28;20054;-67
2023/10/27 10:04:59;;;;;;;8.32;2.83;;;;;;;;;;5098890;28;20051;-67
2023/10/27 10:07:31;;;;;;;;;;;;;;;;;;5104407;28;20104;-67
2023/10/27 10:09:57;;;;;;;4.18;1.70;;;;;;;;;;5104780;28;19919;-68
2023/10/27 10:12:24;;;;;;;7.25;1.73;;;;;;;;;;5098961;28;20054;-67
2023/10/27 10:14:51;;;;;;;6.07;1.30;;;;;;;;;;5099560;28;20048;-67
2023/10/27 10:17:37;;;;;;;3.53;1.52;;;;;;;;;;5107574;28;20044;-67
2023/10/27 10:20:05;;;;;;;4.05;1.55;;;;;;;;;;5103485;28;20039;-67
2023/10/27 10:22:53;;;;;;;5.80;1.58;;;;;;;;;;5093019;28;20043;-68
2023/10/27 10:25:28;;;;;;;5.18;1.48;;;;;;;;;;5096041;28;20095;-67
2023/10/27 10:28:27;;;;;;;8.30;1.83;;;;;;;;;;5093379;28;20308;-68
2023/10/27 10:31:30;;;;;;;5.43;1.67;;;;;;;;;;5092638;28;20063;-68
2023/10/27 10:34:10;;;;;;;7.38;1.90;;;;;;;;;;5098881;28;20397;-67
2023/10/27 10:36:37;;;;;;;4.00;1.77;;;;;;;;;;5106943;28;20051;-67
2023/10/27 10:39:05;;;;;;;6.78;1.77;;;;;;;;;;5099119;28;20048;-67
2023/10/27 10:42:03;;;;;;;7.55;1.65;;;;;;;;;;5098474;28;20126;-68
2023/10/27 10:44:31;;;;;;;7.15;1.95;;;;;;;;;;5102203;28;20499;-67
2023/10/27 10:47:03;;;;;;;6.47;1.80;;;;;;;;;;5094349;28;20484;-67
2023/10/27 10:49:30;;;;;;;5.63;2.00;;;;;;;;;;5097888;28;20055;-68
2023/10/27 10:51:58;;;;;;;6.35;1.98;;;;;;;;;;5101520;28;20270;-67
2023/10/27 10:54:30;;;;;;;6.63;1.35;;;;;;;;;;5109010;28;20048;-67
2023/10/27 10:57:06;;;;;;;3.88;1.90;;;;;;;;;;5105935;28;20039;-67
2023/10/27 10:59:33;;;;;;;5.32;1.90;;;;;;;;;;5105270;28;20131;-67
2023/10/27 11:02:00;;;;;;;7.20;2.08;;;;;;;;;;5103122;28;20048;-67
2023/10/27 11:04:30;;;;;;;7.88;2.03;;;;;;;;;;5101833;28;20071;-66
2023/10/27 11:07:02;;;;;;;5.78;1.67;;;;;;;;;;5102214;28;20051;-67
2023/10/27 11:09:31;;;;;;;6.00;2.15;;;;;;;;;;5099266;28;20052;-66
2023/10/27 11:11:59;;;;;;;6.88;1.83;;;;;;;;;;5092072;28;20117;-66
2023/10/27 11:14:26;;;;;;;8.80;2.25;;;;;;;;;;5102700;28;20054;-67
2023/10/27 11:17:00;;;;;;;7.93;2.63;;;;;;;;;;5102244;28;20050;-66
2023/10/27 11:19:26;;;;;;;10.50;3.00;;;;;;;;;;5101490;28;20431;-67
2023/10/27 11:21:54;;;;;;;6.32;2.40;;;;;;;;;;5103190;28;20051;-67
2023/10/27 11:24:21;;;;;;;8.38;2.30;;;;;;;;;;5107258;28;20039;-67
2023/10/27 11:26:50;;;;;;;9.30;2.40;;;;;;;;;;5099042;28;20132;-67
2023/10/27 11:29:16;;;;;;;9.55;2.47;;;;;;;;;;5099847;28;20514;-66
2023/10/27 11:31:45;;;;;;;7.63;2.22;;;;;;;;;;5090549;28;20413;-66
2023/10/27 11:34:12;;;;;;;5.95;2.00;;;;;;;;;;5094880;28;20052;-67
2023/10/27 11:36:42;;;;;;;7.80;1.90;;;;;;;;;;5103205;28;20043;-67
2023/10/27 11:39:14;;;;;;;3.30;1.73;;;;;;;;;;5108112;28;20080;-67
2023/10/27 11:41:40;;;;;;;4.95;1.60;;;;;;;;;;5111472;28;20051;-67
2023/10/27 11:44:08;;;;;;;11.93;4.40;;;;;;;;;;5108191;28;20480;-67
2023/10/27 11:46:35;;;;;;;6.07;2.90;;;;;;;;;;5110543;28;20050;-67
2023/10/27 11:49:02;;;;;;;8.98;3.30;;;;;;;;;;5103905;28;20511;-66
2023/10/27 11:51:29;;;;;;;7.40;3.10;;;;;;;;;;5099587;28;20048;-67
2023/10/27 11:53:57;;;;;;;6.75;2.08;;;;;;;;;;5101064;28;20071;-67
2023/10/27 11:56:23;;;;;;;5.03;2.00;;;;;;;;;;5097925;28;20044;-67
2023/10/27 11:58:50;;;;;;;6.30;2.08;;;;;;;;;;5104637;28;20462;-67
2023/10/27 12:01:19;;;;;;;4.32;1.40;;;;;;;;;;5109422;28;20344;-67
2023/10/27 12:03:46;;;;;;;5.07;1.63;;;;;;;;;;5104672;28;20491;-66
2023/10/27 12:06:12;;;;;;;4.38;1.98;;;;;;;;;;5108880;28;20051;-67
2023/10/27 12:08:39;;;;;;;4.95;1.50;;;;;;;;;;5105190;28;20048;-67
2023/10/27 12:11:05;;;;;;;7.53;1.60;;;;;;;;;;5108262;28;20054;-67
2023/10/27 12:13:32;;;;;;;6.18;1.35;;;;;;;;;;5108252;28;20385;-67
2023/10/27 12:15:58;;;;;;;2.65;1.45;;;;;;;;;;5106658;28;20044;-67
2023/10/27 12:18:26;;;;;;;3.42;1.70;;;;;;;;;;5104893;28;20052;-67
2023/10/27 12:20:53;;;;;;;3.50;1.20;;;;;;;;;;5098292;28;20491;-67
2023/10/27 12:23:20;;;;;;;5.57;1.40;;;;;;;;;;5109134;28;20566;-69
2023/10/27 12:25:47;;;;;;;2.92;1.30;;;;;;;;;;5105526;28;20138;-69
2023/10/27 12:28:13;;;;;;;5.30;1.50;;;;;;;;;;5103854;28;20049;-70
2023/10/27 12:30:40;;;;;;;5.07;1.65;;;;;;;;;;5106379;28;20308;-70
2023/10/27 12:33:09;;;;;;;5.82;1.88;;;;;;;;;;5104686;28;20054;-69
2023/10/27 12:35:37;;;;;;;3.97;1.50;;;;;;;;;;5107003;28;20092;-69
2023/10/27 12:38:05;;;;;;;5.43;1.50;;;;;;;;;;5105835;28;20048;-69
2023/10/27 12:40:34;;;;;;;4.40;1.58;;;;;;;;;;5106233;28;20055;-70
2023/10/27 12:43:00;;;;;;;4.70;1.23;;;;;;;;;;5106331;28;20044;-70
2023/10/27 12:45:27;;;;;;;5.03;1.38;;;;;;;;;;5107059;28;20539;-69
2023/10/27 12:47:54;;;;;;;4.15;1.02;;;;;;;;;;5100107;28;20040;-69
2023/10/27 12:50:22;;;;;;;6.45;1.17;;;;;;;;;;5108619;28;20541;-70
2023/10/27 12:52:50;;;;;;;4.32;1.42;;;;;;;;;;5105992;28;20043;-69
2023/10/27 12:55:17;;;;;;;2.85;1.30;;;;;;;;;;5111442;28;20492;-70
2023/10/27 12:57:44;;;;;;;4.78;1.45;;;;;;;;;;5101868;28;20456;-69
2023/10/27 13:00:17;;;;;;;6.75;1.98;;;;;;;;;;5112236;28;20431;-69
2023/10/27 13:02:44;;;;;;;4.63;1.83;;;;;;;;;;5105195;28;20048;-69
2023/10/27 13:05:12;;;;;;;5.35;1.80;;;;;;;;;;5110315;28;20484;-70
2023/10/27 13:07:39;;;;;;;5.03;2.00;;;;;;;;;;5101682;28;20051;-69
2023/10/27 13:10:08;;;;;;;4.05;1.95;;;;;;;;;;5101401;28;20044;-70
2023/10/27 13:12:36;;;;;;;5.72;1.85;;;;;;;;;;5107399;28;20054;-70
2023/10/27 13:15:04;;;;;;;3.53;1.40;;;;;;;;;;5103525;28;20047;-69
2023/10/27 13:17:30;;;;;;;7.45;2.45;;;;;;;;;;5101322;28;20054;-69
2023/10/27 13:19:58;;;;;;;4.90;1.90;;;;;;;;;;5103817;28;20048;-70
2023/10/27 13:22:26;;;;;;;5.28;1.55;;;;;;;;;;5107918;28;20058;-70
2023/10/27 13:24:55;;;;;;;3.90;1.45;;;;;;;;;;5104519;28;20120;-70
2023/10/27 13:27:23;;;;;;;3.83;1.55;;;;;;;;;;5106074;28;20043;-70
2023/10/27 13:29:50;;;;;;;10.07;3.03;;;;;;;;;;5102266;28;20400;-70
2023/10/27 13:32:17;;;;;;;6.43;1.75;;;;;;;;;;5106299;28;20047;-70
2023/10/27 13:34:45;;;;;;;6.93;3.20;;;;;;;;;;5107333;28;20050;-70
2023/10/27 13:37:13;;;;;;;11.18;3.75;;;;;;;;;;5109249;28;20083;-69
2023/10/27 13:39:40;;;;;;;15.27;6.43;;;;;;;;;;5109757;28;20044;-70
2023/10/27 13:42:06;;;;;;;5.80;2.42;;;;;;;;;;5106132;28;20063;-69
2023/10/27 13:44:38;;;;;;;3.08;1.42;;;;;;;;;;5110136;28;20066;-70
2023/10/27 13:47:05;;;;;;;5.85;1.50;;;;;;;;;;5104294;28;20052;-69
2023/10/27 13:49:32;;;;;;;4.47;1.40;;;;;;;;;;5102748;28;20050;-69
2023/10/27 13:51:58;;;;;;;3.03;1.25;;;;;;;;;;5106060;28;20109;-69
2023/10/27 13:54:25;;;;;;;3.35;1.13;;;;;;;;;;5102542;28;20104;-69
2023/10/27 13:56:52;;;;;;;3.13;1.08;;;;;;;;;;5102991;28;20066;-69
2023/10/27 13:59:18;;;;;;;5.50;1.00;;;;;;;;;;5102547;28;20044;-69
2023/10/27 14:01:46;;;;;;;4.18;1.35;;;;;;;;;;5103665;28;20054;-69
2023/10/27 14:04:14;;;;;;;2.85;1.30;;;;;;;;;;5103071;28;20491;-69
2023/10/27 14:06:46;;;;;;;3.22;1.25;;;;;;;;;;5104795;28;20050;-69
2023/10/27 14:09:14;;;;;;;5.03;1.33;;;;;;;;;;5104221;28;20052;-69
2023/10/27 14:11:41;;;;;;;3.67;1.20;;;;;;;;;;5101899;28;20056;-69
2023/10/27 14:14:07;;;;;;;2.53;1.23;;;;;;;;;;5105511;28;20047;-69
2023/10/27 14:16:35;;;;;;;2.92;0.80;;;;;;;;;;5103812;28;20045;-70
2023/10/27 14:19:03;;;;;;;4.68;1.40;;;;;;;;;;5106632;28;20523;-69
2023/10/27 14:21:31;;;;;;;3.35;1.10;;;;;;;;;;5105652;28;20370;-69
2023/10/27 14:23:58;;;;;;;2.33;0.93;;;;;;;;;;5104221;28;20071;-69
2023/10/27 14:26:25;;;;;;;4.03;1.40;;;;;;;;;;5102179;28;20449;-70
2023/10/27 14:28:51;;;;;;;4.10;1.40;;;;;;;;;;5106028;28;20048;-69
2023/10/27 14:31:18;;;;;;;2.35;1.35;;;;;;;;;;5104196;28;20241;-69
2023/10/27 14:33:44;;;;;;;3.65;1.33;;;;;;;;;;5102777;28;20470;-69
2023/10/27 14:36:13;;;;;;;4.05;1.30;;;;;;;;;;5105539;28;20416;-69
2023/10/27 14:38:40;;;;;;;2.08;1.10;;;;;;;;;;5105091;28;20047;-70
2023/10/27 14:41:09;;;;;;;2.03;1.10;;;;;;;;;;5103049;28;20051;-69
2023/10/27 14:43:36;;;;;;;5.07;1.23;;;;;;;;;;5100004;28;20511;-69
2023/10/27 14:46:03;;;;;;;2.15;1.00;;;;;;;;;;5105734;28;20054;-69
2023/10/27 14:48:30;;;;;;;3.88;1.40;;;;;;;;;;5101469;28;20051;-69